createdAt,value
2018-01-01T00:01:54.974Z,9.40
2018-01-01T00:04:22.465Z,9.10
2018-01-01T00:06:49.998Z,9.10
2018-01-01T00:09:17.489Z,9.00
2018-01-01T00:11:45.782Z,8.80
2018-01-01T00:14:13.309Z,8.80
2018-01-01T00:16:40.811Z,9.00
2018-01-01T00:19:08.325Z,9.10
2018-01-01T00:21:35.967Z,9.20
2018-01-01T00:24:03.493Z,9.30
2018-01-01T00:26:30.985Z,9.30
2018-01-01T00:28:58.480Z,9.30
2018-01-01T00:31:26.006Z,9.40
2018-01-01T00:33:53.542Z,9.50
2018-01-01T00:36:21.804Z,9.30
2018-01-01T00:38:49.311Z,9.30
2018-01-01T00:41:16.836Z,9.30
2018-01-01T00:43:45.140Z,9.20
2018-01-01T00:46:12.619Z,9.20
2018-01-01T00:48:40.147Z,9.00
2018-01-01T00:51:08.398Z,9.00
2018-01-01T00:53:35.917Z,9.00
2018-01-01T00:56:03.463Z,9.10
2018-01-01T00:58:31.723Z,9.10
2018-01-01T01:00:59.211Z,9.10
2018-01-01T01:03:27.511Z,8.90
2018-01-01T01:05:55.013Z,8.90
2018-01-01T01:08:22.541Z,8.90
2018-01-01T01:10:50.069Z,9.10
2018-01-01T01:13:18.330Z,8.90
2018-01-01T01:15:45.811Z,8.90
2018-01-01T01:18:14.107Z,9.10
2018-01-01T01:20:41.614Z,9.10
2018-01-01T01:23:09.134Z,9.10
2018-01-01T01:25:36.654Z,9.00
2018-01-01T01:28:04.157Z,8.90
2018-01-01T01:30:32.441Z,9.00
2018-01-01T01:32:59.929Z,9.00
2018-01-01T01:35:27.421Z,8.80
2018-01-01T01:37:54.940Z,8.80
2018-01-01T01:40:22.430Z,8.80
2018-01-01T01:42:49.966Z,8.80
2018-01-01T01:45:17.490Z,8.80
2018-01-01T01:47:44.975Z,8.80
2018-01-01T01:50:13.290Z,8.70
2018-01-01T01:52:40.816Z,8.70
2018-01-01T01:55:09.074Z,8.60
2018-01-01T01:57:36.584Z,8.60
2018-01-01T02:00:04.101Z,8.60
2018-01-01T02:02:31.617Z,8.60
2018-01-01T02:04:59.101Z,8.60
2018-01-01T02:07:26.626Z,8.60
2018-01-01T02:09:54.109Z,8.70
2018-01-01T02:12:21.625Z,8.70
2018-01-01T02:14:49.140Z,8.60
2018-01-01T02:17:16.662Z,8.60
2018-01-01T02:19:44.905Z,8.50
2018-01-01T02:22:12.430Z,8.50
2018-01-01T02:24:39.945Z,8.50
2018-01-01T02:27:07.466Z,8.40
2018-01-01T02:29:34.984Z,8.40
2018-01-01T02:32:23.221Z,8.40
2018-01-01T02:34:50.698Z,8.30
2018-01-01T02:37:19.018Z,8.20
2018-01-01T02:39:46.485Z,8.20
2018-01-01T02:42:14.007Z,8.20
2018-01-01T02:44:42.254Z,8.10
2018-01-01T02:47:09.735Z,8.00
2018-01-01T02:49:37.249Z,8.00
2018-01-01T02:52:04.766Z,8.10
2018-01-01T02:54:32.272Z,8.10
2018-01-01T02:56:59.790Z,8.20
2018-01-01T02:59:27.276Z,8.10
2018-01-01T03:01:55.563Z,8.20
2018-01-01T03:04:23.061Z,8.20
2018-01-01T03:06:50.542Z,8.10
2018-01-01T03:09:18.068Z,8.20
2018-01-01T03:11:45.563Z,8.20
2018-01-01T03:14:13.050Z,8.20
2018-01-01T03:16:40.565Z,8.20
2018-01-01T03:19:08.094Z,8.30
2018-01-01T03:21:36.342Z,8.20
2018-01-01T03:24:03.853Z,8.20
2018-01-01T03:26:31.371Z,8.20
2018-01-01T03:28:58.889Z,8.20
2018-01-01T03:31:26.374Z,8.20
2018-01-01T03:33:54.008Z,8.30
2018-01-01T03:36:21.522Z,8.30
2018-01-01T03:38:49.013Z,8.20
2018-01-01T03:41:17.278Z,8.20
2018-01-01T03:43:44.797Z,8.10
2018-01-01T03:46:12.278Z,8.10
2018-01-01T03:48:39.837Z,8.20
2018-01-01T03:51:07.321Z,8.10
2018-01-01T03:53:34.797Z,8.20
2018-01-01T03:56:02.326Z,8.10
2018-01-01T03:58:29.803Z,8.20
2018-01-01T04:00:57.337Z,8.10
2018-01-01T04:03:24.823Z,8.10
2018-01-01T04:05:52.302Z,8.10
2018-01-01T04:08:19.817Z,8.10
2018-01-01T04:10:47.295Z,8.10
2018-01-01T04:13:14.820Z,8.10
2018-01-01T04:15:43.101Z,8.10
2018-01-01T04:18:11.355Z,8.00
2018-01-01T04:20:38.895Z,8.00
2018-01-01T04:23:06.405Z,8.00
2018-01-01T04:25:34.693Z,8.10
2018-01-01T04:28:02.191Z,8.10
2018-01-01T04:30:29.706Z,8.00
2018-01-01T04:32:57.990Z,8.10
2018-01-01T04:35:26.253Z,8.00
2018-01-01T04:37:53.733Z,8.00
2018-01-01T04:40:22.030Z,8.00
2018-01-01T04:42:49.541Z,8.00
2018-01-01T04:45:17.027Z,8.00
2018-01-01T04:47:44.541Z,7.90
2018-01-01T04:50:12.020Z,8.00
2018-01-01T04:52:39.546Z,8.00
2018-01-01T04:55:07.033Z,8.00
2018-01-01T04:57:34.565Z,8.00
2018-01-01T05:00:02.841Z,8.00
2018-01-01T05:02:31.092Z,8.10
2018-01-01T05:04:58.589Z,8.10
2018-01-01T05:07:26.838Z,8.10
2018-01-01T05:09:54.370Z,8.10
2018-01-01T05:12:21.849Z,8.10
2018-01-01T05:14:49.361Z,8.10
2018-01-01T05:17:17.658Z,8.00
2018-01-01T05:19:45.241Z,8.00
2018-01-01T05:22:12.730Z,8.00
2018-01-01T05:24:40.292Z,8.00
2018-01-01T05:27:07.771Z,8.00
2018-01-01T05:29:35.298Z,8.00
2018-01-01T05:32:02.784Z,7.90
2018-01-01T05:34:30.310Z,7.90
2018-01-01T05:36:57.790Z,7.90
2018-01-01T05:39:25.305Z,8.00
2018-01-01T05:41:53.565Z,7.80
2018-01-01T05:44:21.051Z,7.80
2018-01-01T05:46:49.330Z,7.90
2018-01-01T05:49:17.759Z,7.90
2018-01-01T05:51:45.301Z,7.90
2018-01-01T05:54:12.789Z,7.90
2018-01-01T05:56:40.286Z,7.90
2018-01-01T05:59:07.821Z,8.00
2018-01-01T06:01:35.309Z,8.00
2018-01-01T06:04:02.797Z,8.00
2018-01-01T06:06:31.082Z,8.10
2018-01-01T06:08:58.570Z,8.00
2018-01-01T06:11:26.104Z,8.10
2018-01-01T06:13:53.590Z,8.00
2018-01-01T06:16:21.067Z,8.20
2018-01-01T06:18:48.571Z,8.20
2018-01-01T06:21:16.061Z,8.20
2018-01-01T06:23:43.578Z,8.20
2018-01-01T06:26:11.057Z,8.30
2018-01-01T06:28:38.569Z,8.30
2018-01-01T06:31:06.057Z,8.30
2018-01-01T06:33:33.538Z,8.30
2018-01-01T06:36:01.041Z,8.20
2018-01-01T06:38:28.527Z,8.20
2018-01-01T06:40:56.043Z,8.20
2018-01-01T06:43:24.299Z,8.10
2018-01-01T06:45:51.815Z,8.10
2018-01-01T06:48:19.305Z,8.10
2018-01-01T06:50:46.853Z,8.10
2018-01-01T06:53:14.337Z,7.90
2018-01-01T06:55:41.820Z,7.80
2018-01-01T06:58:09.338Z,7.70
2018-01-01T07:00:36.810Z,7.60
2018-01-01T07:03:04.331Z,7.60
2018-01-01T07:05:32.577Z,7.70
2018-01-01T07:08:00.095Z,7.70
2018-01-01T07:10:27.587Z,7.70
2018-01-01T07:12:55.066Z,7.70
2018-01-01T07:15:22.596Z,7.60
2018-01-01T07:17:50.082Z,7.50
2018-01-01T07:20:17.584Z,7.50
2018-01-01T07:22:45.093Z,7.40
2018-01-01T07:25:12.618Z,7.40
2018-01-01T07:27:40.882Z,7.40
2018-01-01T07:30:08.355Z,7.40
2018-01-01T07:32:36.662Z,7.30
2018-01-01T07:35:04.174Z,7.30
2018-01-01T07:37:31.655Z,7.30
2018-01-01T07:39:59.165Z,7.30
2018-01-01T07:42:26.662Z,7.30
2018-01-01T07:44:54.183Z,7.30
2018-01-01T07:47:21.673Z,7.30
2018-01-01T07:49:49.186Z,7.40
2018-01-01T07:52:17.450Z,7.40
2018-01-01T07:54:44.957Z,7.40
2018-01-01T07:57:12.473Z,7.50
2018-01-01T07:59:39.961Z,7.60
2018-01-01T08:02:08.246Z,7.70
2018-01-01T08:04:36.521Z,7.80
2018-01-01T08:07:04.792Z,7.70
2018-01-01T08:09:33.066Z,7.70
2018-01-01T08:12:00.592Z,7.70
2018-01-01T08:14:28.093Z,7.80
2018-01-01T08:16:55.612Z,7.90
2018-01-01T08:19:23.084Z,7.90
2018-01-01T08:21:50.616Z,7.90
2018-01-01T08:24:18.134Z,7.80
2018-01-01T08:26:45.731Z,7.70
2018-01-01T08:29:13.970Z,7.70
2018-01-01T08:31:41.486Z,7.70
2018-01-01T08:34:09.074Z,7.80
2018-01-01T08:36:36.567Z,7.80
2018-01-01T08:39:04.051Z,7.90
2018-01-01T08:41:31.579Z,7.90
2018-01-01T08:43:59.058Z,7.90
2018-01-01T08:46:26.538Z,7.90
2018-01-01T08:48:54.826Z,7.90
2018-01-01T08:51:23.069Z,8.00
2018-01-01T08:53:50.581Z,8.00
2018-01-01T08:56:18.829Z,8.00
2018-01-01T08:58:46.316Z,8.00
2018-01-01T09:01:14.596Z,8.00
2018-01-01T09:03:42.850Z,8.00
2018-01-01T09:06:10.338Z,8.00
2018-01-01T09:08:38.629Z,8.10
2018-01-01T09:11:06.927Z,8.10
2018-01-01T09:13:35.158Z,8.00
2018-01-01T09:16:02.678Z,8.00
2018-01-01T09:18:30.170Z,8.30
2018-01-01T09:20:57.688Z,8.50
2018-01-01T09:23:25.209Z,8.60
2018-01-01T09:25:52.718Z,8.70
2018-01-01T09:28:20.225Z,8.90
2018-01-01T09:30:47.733Z,9.00
2018-01-01T09:33:15.237Z,9.40
2018-01-01T09:35:42.733Z,10.00
2018-01-01T09:38:10.246Z,10.60
2018-01-01T09:40:37.789Z,10.80
2018-01-01T09:43:05.279Z,10.70
2018-01-01T09:45:32.753Z,10.70
2018-01-01T09:48:00.293Z,10.60
2018-01-01T09:50:27.782Z,10.40
2018-01-01T09:52:55.297Z,10.30
2018-01-01T09:55:23.581Z,9.70
2018-01-01T09:57:51.070Z,9.70
2018-01-01T10:00:18.593Z,9.50
2018-01-01T10:02:46.833Z,9.60
2018-01-01T10:05:14.343Z,9.60
2018-01-01T10:07:42.597Z,9.90
2018-01-01T10:10:10.136Z,9.90
2018-01-01T10:12:37.635Z,10.00
2018-01-01T10:15:05.113Z,9.80
2018-01-01T10:17:33.441Z,9.70
2018-01-01T10:20:00.924Z,9.60
2018-01-01T10:22:28.470Z,9.50
2018-01-01T10:24:55.957Z,9.40
2018-01-01T10:27:23.455Z,9.20
2018-01-01T10:29:50.984Z,9.10
2018-01-01T10:32:18.487Z,9.10
2018-01-01T10:34:45.990Z,9.10
2018-01-01T10:37:13.523Z,9.00
2018-01-01T10:39:41.014Z,9.00
2018-01-01T10:42:08.531Z,9.40
2018-01-01T10:44:36.831Z,10.40
2018-01-01T10:47:04.349Z,10.40
2018-01-01T10:49:31.823Z,10.40
2018-01-01T10:52:00.095Z,11.00
2018-01-01T10:54:27.579Z,11.00
2018-01-01T10:56:55.987Z,11.20
2018-01-01T10:59:23.492Z,11.60
2018-01-01T11:01:51.038Z,11.50
2018-01-01T11:04:18.557Z,11.50
2018-01-01T11:06:46.858Z,10.70
2018-01-01T11:09:14.354Z,10.70
2018-01-01T11:11:41.882Z,10.50
2018-01-01T11:14:09.370Z,10.90
2018-01-01T11:16:36.907Z,11.30
2018-01-01T11:19:04.423Z,11.70
2018-01-01T11:21:31.944Z,12.00
2018-01-01T11:23:59.431Z,12.00
2018-01-01T11:26:26.953Z,12.20
2018-01-01T11:28:54.430Z,12.20
2018-01-01T11:31:21.950Z,12.10
2018-01-01T11:33:49.479Z,11.40
2018-01-01T11:36:16.993Z,10.90
2018-01-01T11:38:45.240Z,10.40
2018-01-01T11:41:12.766Z,10.40
2018-01-01T11:43:40.253Z,10.20
2018-01-01T11:46:07.763Z,9.70
2018-01-01T11:48:36.017Z,9.60
2018-01-01T11:51:03.561Z,9.60
2018-01-01T11:53:31.033Z,9.70
2018-01-01T11:55:58.593Z,9.90
2018-01-01T11:58:26.081Z,10.30
2018-01-01T12:00:53.564Z,10.70
2018-01-01T12:03:21.848Z,11.40
2018-01-01T12:05:49.338Z,11.40
2018-01-01T12:08:16.893Z,11.60
2018-01-01T12:10:44.406Z,11.30
2018-01-01T12:13:11.885Z,11.00
2018-01-01T12:15:40.166Z,10.10
2018-01-01T12:18:08.491Z,10.10
2018-01-01T12:20:35.969Z,10.10
2018-01-01T12:23:03.458Z,10.50
2018-01-01T12:25:30.990Z,11.10
2018-01-01T12:27:58.483Z,11.60
2018-01-01T12:30:26.013Z,11.90
2018-01-01T12:32:53.534Z,12.40
2018-01-01T12:35:21.778Z,12.20
2018-01-01T12:37:49.298Z,12.20
2018-01-01T12:40:16.787Z,12.10
2018-01-01T12:42:44.305Z,12.20
2018-01-01T12:45:12.614Z,12.50
2018-01-01T12:47:40.115Z,12.50
2018-01-01T12:50:07.629Z,12.60
2018-01-01T12:52:35.127Z,12.70
2018-01-01T12:55:02.658Z,12.70
2018-01-01T12:57:30.150Z,12.90
2018-01-01T12:59:57.682Z,12.70
2018-01-01T13:02:25.210Z,13.00
2018-01-01T13:04:53.465Z,12.80
2018-01-01T13:07:21.000Z,12.80
2018-01-01T13:09:48.493Z,12.40
2018-01-01T13:12:15.985Z,12.30
2018-01-01T13:14:44.291Z,12.10
2018-01-01T13:17:11.785Z,12.10
2018-01-01T13:19:39.303Z,12.10
2018-01-01T13:22:07.554Z,12.10
2018-01-01T13:24:35.112Z,12.10
2018-01-01T13:27:02.611Z,11.90
2018-01-01T13:29:30.853Z,12.40
2018-01-01T13:31:58.439Z,12.40
2018-01-01T13:34:25.943Z,12.40
2018-01-01T13:36:53.434Z,12.40
2018-01-01T13:39:20.949Z,12.40
2018-01-01T13:41:49.240Z,12.90
2018-01-01T13:44:16.758Z,12.90
2018-01-01T13:46:44.271Z,12.70
2018-01-01T13:49:11.781Z,12.80
2018-01-01T13:51:39.265Z,12.60
2018-01-01T13:54:07.560Z,12.60
2018-01-01T13:56:35.817Z,12.40
2018-01-01T13:59:03.362Z,12.40
2018-01-01T14:01:30.891Z,12.60
2018-01-01T14:03:58.461Z,12.20
2018-01-01T14:06:25.956Z,12.10
2018-01-01T14:08:53.441Z,11.90
2018-01-01T14:11:20.955Z,11.80
2018-01-01T14:13:48.465Z,11.80
2018-01-01T14:16:16.097Z,11.60
2018-01-01T14:18:43.592Z,11.60
2018-01-01T14:21:11.082Z,11.40
2018-01-01T14:23:39.439Z,11.00
2018-01-01T14:26:07.007Z,11.00
2018-01-01T14:28:34.506Z,10.50
2018-01-01T14:31:02.033Z,10.30
2018-01-01T14:33:29.537Z,10.10
2018-01-01T14:35:57.060Z,9.90
2018-01-01T14:38:24.590Z,9.70
2018-01-01T14:40:52.097Z,9.70
2018-01-01T14:43:20.376Z,9.70
2018-01-01T14:45:48.626Z,9.60
2018-01-01T14:48:16.172Z,9.60
2018-01-01T14:50:43.684Z,9.70
2018-01-01T14:53:11.934Z,9.50
2018-01-01T14:55:39.452Z,9.50
2018-01-01T14:58:06.971Z,9.40
2018-01-01T15:00:34.445Z,9.50
2018-01-01T15:03:02.087Z,9.40
2018-01-01T15:05:29.602Z,9.30
2018-01-01T15:07:57.082Z,9.40
2018-01-01T15:10:24.577Z,9.30
2018-01-01T15:12:53.436Z,9.20
2018-01-01T15:15:20.941Z,9.20
2018-01-01T15:17:48.423Z,9.10
2018-01-01T15:20:16.026Z,8.90
2018-01-01T15:22:43.525Z,9.00
2018-01-01T15:25:11.002Z,8.90
2018-01-01T15:27:38.530Z,8.90
2018-01-01T15:30:06.053Z,8.90
2018-01-01T15:32:33.588Z,8.90
2018-01-01T15:35:01.104Z,8.80
2018-01-01T15:37:28.618Z,8.80
2018-01-01T15:39:56.739Z,8.80
2018-01-01T15:42:24.253Z,8.60
2018-01-01T15:44:51.741Z,8.50
2018-01-01T15:47:19.991Z,8.30
2018-01-01T15:49:47.526Z,8.30
2018-01-01T15:52:15.071Z,8.40
2018-01-01T15:54:42.553Z,8.40
2018-01-01T15:57:10.093Z,8.40
2018-01-01T15:59:37.575Z,8.40
2018-01-01T16:02:05.094Z,8.40
2018-01-01T16:04:32.574Z,8.40
2018-01-01T16:07:00.857Z,8.20
2018-01-01T16:09:28.370Z,8.20
2018-01-01T16:11:55.854Z,8.20
2018-01-01T16:14:23.402Z,8.10
2018-01-01T16:16:50.890Z,8.10
2018-01-01T16:19:18.441Z,8.00
2018-01-01T16:21:45.953Z,7.90
2018-01-01T16:24:13.439Z,7.90
2018-01-01T16:26:40.952Z,8.00
2018-01-01T16:29:09.421Z,7.90
2018-01-01T16:31:36.921Z,7.80
2018-01-01T16:34:04.426Z,7.80
2018-01-01T16:36:31.938Z,7.70
2018-01-01T16:39:00.245Z,7.60
2018-01-01T16:41:27.753Z,7.70
2018-01-01T16:43:55.241Z,7.60
2018-01-01T16:46:23.557Z,7.60
2018-01-01T16:48:51.083Z,7.60
2018-01-01T16:51:19.354Z,7.50
2018-01-01T16:53:46.902Z,7.50
2018-01-01T16:56:14.397Z,7.50
2018-01-01T16:58:42.714Z,7.40
2018-01-01T17:01:10.205Z,7.40
2018-01-01T17:03:37.689Z,7.40
2018-01-01T17:06:05.999Z,7.50
2018-01-01T17:08:33.487Z,7.50
2018-01-01T17:11:00.985Z,7.50
2018-01-01T17:13:28.492Z,7.70
2018-01-01T17:15:56.019Z,7.80
2018-01-01T17:18:23.516Z,7.90
2018-01-01T17:20:51.013Z,8.00
2018-01-01T17:23:18.545Z,8.10
2018-01-01T17:25:46.066Z,8.20
2018-01-01T17:28:13.556Z,8.30
2018-01-01T17:30:41.845Z,8.50
2018-01-01T17:33:09.322Z,8.40
2018-01-01T17:35:36.858Z,8.40
2018-01-01T17:38:05.149Z,8.50
2018-01-01T17:40:32.634Z,8.50
2018-01-01T17:43:00.121Z,8.50
2018-01-01T17:45:27.621Z,8.60
2018-01-01T17:47:55.915Z,8.50
2018-01-01T17:50:24.163Z,8.60
2018-01-01T17:52:51.682Z,8.60
2018-01-01T17:55:19.162Z,8.50
2018-01-01T17:57:46.686Z,8.50
2018-01-01T18:00:14.168Z,8.50
2018-01-01T18:02:41.654Z,8.40
2018-01-01T18:05:09.206Z,8.30
2018-01-01T18:07:36.734Z,8.30
2018-01-01T18:10:05.032Z,8.30
2018-01-01T18:12:32.578Z,8.30
2018-01-01T18:15:00.845Z,8.30
2018-01-01T18:17:29.098Z,8.50
2018-01-01T18:19:56.615Z,8.50
2018-01-01T18:22:24.136Z,8.50
2018-01-01T18:24:51.656Z,8.50
2018-01-01T18:27:19.190Z,8.60
2018-01-01T18:29:47.450Z,8.60
2018-01-01T18:32:14.976Z,8.60
2018-01-01T18:34:42.499Z,8.60
2018-01-01T18:37:10.747Z,8.70
2018-01-01T18:39:38.229Z,8.70
2018-01-01T18:42:05.758Z,8.70
2018-01-01T18:44:33.294Z,8.80
2018-01-01T18:47:00.783Z,8.80
2018-01-01T18:49:28.255Z,8.80
2018-01-01T18:51:55.771Z,8.80
2018-01-01T18:54:23.269Z,8.80
2018-01-01T18:56:50.789Z,8.70
2018-01-01T18:59:19.088Z,8.70
2018-01-01T19:01:46.569Z,8.70
2018-01-01T19:04:14.091Z,8.50
2018-01-01T19:06:42.353Z,8.30
2018-01-01T19:09:09.870Z,8.30
2018-01-01T19:11:37.398Z,8.30
2018-01-01T19:14:05.653Z,8.20
2018-01-01T19:16:33.134Z,8.20
2018-01-01T19:19:01.423Z,8.20
2018-01-01T19:21:29.756Z,8.20
2018-01-01T19:23:57.250Z,8.20
2018-01-01T19:26:24.733Z,8.30
2018-01-01T19:28:53.037Z,8.30
2018-01-01T19:31:20.528Z,8.30
2018-01-01T19:33:48.059Z,8.30
2018-01-01T19:36:15.583Z,8.30
2018-01-01T19:38:43.074Z,8.40
2018-01-01T19:41:10.594Z,8.50
2018-01-01T19:43:38.069Z,8.50
2018-01-01T19:46:05.614Z,8.40
2018-01-01T19:48:33.098Z,8.40
2018-01-01T19:51:00.598Z,8.30
2018-01-01T19:53:28.143Z,8.50
2018-01-01T19:55:56.397Z,8.50
2018-01-01T19:58:23.913Z,8.50
2018-01-01T20:00:51.425Z,8.40
2018-01-01T20:03:18.958Z,8.40
2018-01-01T20:05:46.438Z,8.50
2018-01-01T20:08:13.970Z,8.40
2018-01-01T20:10:41.456Z,8.40
2018-01-01T20:13:08.953Z,8.40
2018-01-01T20:15:36.491Z,8.40
2018-01-01T20:18:03.982Z,8.40
2018-01-01T20:20:32.269Z,8.40
2018-01-01T20:23:00.538Z,8.40
2018-01-01T20:25:28.045Z,8.40
2018-01-01T20:27:55.562Z,8.40
2018-01-01T20:30:23.062Z,8.40
2018-01-01T20:32:50.569Z,8.30
2018-01-01T20:35:18.094Z,8.30
2018-01-01T20:37:45.641Z,8.20
2018-01-01T20:40:13.889Z,8.20
2018-01-01T20:42:41.418Z,8.20
2018-01-01T20:45:09.694Z,8.00
2018-01-01T20:47:37.202Z,8.00
2018-01-01T20:50:04.720Z,8.10
2018-01-01T20:52:32.238Z,8.10
2018-01-01T20:54:59.770Z,8.20
2018-01-01T20:57:27.265Z,8.10
2018-01-01T20:59:54.789Z,8.10
2018-01-01T21:02:22.273Z,8.10
2018-01-01T21:04:49.797Z,8.00
2018-01-01T21:07:17.286Z,8.00
2018-01-01T21:09:44.797Z,8.00
2018-01-01T21:12:13.137Z,8.10
2018-01-01T21:14:40.676Z,8.10
2018-01-01T21:17:08.202Z,8.00
2018-01-01T21:19:36.480Z,7.90
2018-01-01T21:22:04.790Z,7.70
2018-01-01T21:24:32.269Z,7.70
2018-01-01T21:26:59.881Z,7.70
2018-01-01T21:29:28.144Z,7.60
2018-01-01T21:31:56.241Z,7.60
2018-01-01T21:34:24.534Z,7.70
2018-01-01T21:36:52.793Z,7.70
2018-01-01T21:39:20.305Z,7.70
2018-01-01T21:41:47.828Z,7.70
2018-01-01T21:44:16.085Z,7.90
2018-01-01T21:46:43.610Z,7.90
2018-01-01T21:49:11.097Z,7.90
2018-01-01T21:51:38.650Z,7.80
2018-01-01T21:54:06.152Z,7.90
2018-01-01T21:56:33.672Z,7.90
2018-01-01T21:59:01.216Z,8.00
2018-01-01T22:01:28.706Z,8.00
2018-01-01T22:03:56.201Z,7.90
2018-01-01T22:06:23.729Z,7.90
2018-01-01T22:08:51.249Z,7.90
2018-01-01T22:11:19.509Z,7.80
2018-01-01T22:13:47.019Z,7.80
2018-01-01T22:16:14.537Z,7.90
2018-01-01T22:18:42.063Z,7.90
2018-01-01T22:21:09.545Z,7.70
2018-01-01T22:23:37.088Z,7.70
2018-01-01T22:26:04.599Z,7.70
2018-01-01T22:28:32.090Z,7.60
2018-01-01T22:30:59.613Z,7.60
2018-01-01T22:33:27.150Z,7.60
2018-01-01T22:35:54.669Z,7.60
2018-01-01T22:38:22.964Z,7.50
2018-01-01T22:40:50.457Z,7.50
2018-01-01T22:43:17.969Z,7.60
2018-01-01T22:45:46.219Z,7.60
2018-01-01T22:48:13.737Z,7.60
2018-01-01T22:50:41.271Z,7.60
2018-01-01T22:53:09.518Z,7.60
2018-01-01T22:55:37.034Z,7.60
2018-01-01T22:58:04.556Z,7.50
2018-01-01T23:00:32.034Z,7.60
2018-01-01T23:02:59.559Z,7.60
2018-01-01T23:05:27.054Z,7.50
2018-01-01T23:07:54.578Z,7.50
2018-01-01T23:10:22.124Z,7.40
2018-01-01T23:12:49.638Z,7.30
2018-01-01T23:15:17.118Z,7.20
2018-01-01T23:17:44.626Z,7.10
2018-01-01T23:20:12.149Z,7.00
2018-01-01T23:22:40.439Z,6.80
2018-01-01T23:25:08.718Z,6.80
2018-01-01T23:27:36.991Z,6.50
2018-01-01T23:30:05.274Z,6.60
2018-01-01T23:32:33.526Z,6.40
2018-01-01T23:35:01.047Z,6.40
2018-01-01T23:37:28.539Z,6.40
2018-01-01T23:39:56.055Z,6.40
2018-01-01T23:42:24.303Z,6.30
2018-01-01T23:44:51.827Z,6.30
2018-01-01T23:47:19.332Z,6.20
2018-01-01T23:49:46.850Z,6.10
2018-01-01T23:52:14.364Z,6.00
2018-01-01T23:54:41.855Z,5.90
2018-01-01T23:57:09.384Z,6.00
2018-01-01T23:59:36.877Z,5.90
